Pagrindinis puslapis
METAR-TAF:

METAR-TAF

Oro uostai :

Mumbajus, Indija

platuma: 19-07N, ilguma: 072-51E, Aukštis: 8 m

Dabartinis oras

Ataskaita buvo paskelbta 30 minutes, ne 05:00 UTC
Ramus vėjas
Temperatūra 28°C
Drėgmė 58%
Slėgis 1012 hPa
Matomumas: 2100 m
migla

METAR: VABB 120500Z 00000KT 2100 HZ NSC 28/19 Q1012 NOSIG

Laikas: 11:00 (05:30 UTC)

Prognozė

Ataskaita buvo paskelbta 3 valandos ir 30 minutes, ne 02:00 UTC
Prognozė galioja nuo 12 metu 03 UTC su 12 metu 12 UTC
Vėjas 6 kt iš Rytų/Pietryčių
Matomumas: 2000 m
rūkana, migla
Tapsmas
nuo 12 metu 05 UTC su 12 metu 07 UTC
Vėjas 7 kt iš Vakarų/Šiaurės Vakarų
Matomumas: 2500 m
Mažai debesys ne aukštis 2000 ft
migla
Tapsmas
nuo 12 metu 09 UTC su 12 metu 11 UTC
Matomumas: 3000 m
Mažai debesys ne aukštis 10000 ft
dūmai

TAF: VABB 120200Z 1203/1212 12006KT 2000 BR HZ NSC BECMG 1205/1207 29007KT 2500 HZ FEW020 BECMG 1209/1211 3000 FU FEW100

Orai ataskaitas ir orų prognozės (METAR, TAF).

turimą stotys yra geltonos ir raudonos taškus žemėlapyje.

Perkelti pele per norėdami pamatyti stoties vardą.

Tada spustelėkite, norėdami matyti oro stebėjimo ir prognozės.

Norėdami pakeisti žemėlapį: spustelėkite ant žalios mygtukų su juodo kryžiaus žemyn,; žalią mygtuką su brūkšneliu, jei norite nutolinti; arba žalių rodyklių gretimoms žemėlapius.


METAR-TAF: